sensor_id;sensor_type;location;lat;lon;timestamp;P1;durP1;ratioP1;P2;durP2;ratioP2
59492;SDS011;45497;43.996;22.876;2023-06-10T00:01:03;6.72;;;3.42;;
59492;SDS011;45497;43.996;22.876;2023-06-10T00:03:29;9.38;;;3.60;;
59492;SDS011;45497;43.996;22.876;2023-06-10T00:05:55;6.43;;;3.50;;
59492;SDS011;45497;43.996;22.876;2023-06-10T00:08:20;6.67;;;3.40;;
59492;SDS011;45497;43.996;22.876;2023-06-10T00:10:46;8.03;;;3.63;;
59492;SDS011;45497;43.996;22.876;2023-06-10T00:13:11;8.50;;;3.95;;
59492;SDS011;45497;43.996;22.876;2023-06-10T00:15:37;8.33;;;3.70;;
59492;SDS011;45497;43.996;22.876;2023-06-10T00:18:03;8.43;;;3.67;;
59492;SDS011;45497;43.996;22.876;2023-06-10T00:20:30;8.23;;;3.65;;
59492;SDS011;45497;43.996;22.876;2023-06-10T00:22:57;8.32;;;3.85;;
59492;SDS011;45497;43.996;22.876;2023-06-10T00:25:24;7.68;;;3.97;;
59492;SDS011;45497;43.996;22.876;2023-06-10T00:27:51;8.48;;;3.80;;
59492;SDS011;45497;43.996;22.876;2023-06-10T00:30:16;9.88;;;4.25;;
59492;SDS011;45497;43.996;22.876;2023-06-10T00:32:42;9.13;;;3.90;;
59492;SDS011;45497;43.996;22.876;2023-06-10T00:35:07;8.43;;;3.88;;
59492;SDS011;45497;43.996;22.876;2023-06-10T00:37:33;7.37;;;4.00;;
59492;SDS011;45497;43.996;22.876;2023-06-10T00:40:01;9.63;;;4.40;;
59492;SDS011;45497;43.996;22.876;2023-06-10T00:42:27;9.80;;;4.43;;
59492;SDS011;45497;43.996;22.876;2023-06-10T00:44:54;8.57;;;4.20;;
59492;SDS011;45497;43.996;22.876;2023-06-10T00:47:19;9.35;;;4.60;;
59492;SDS011;45497;43.996;22.876;2023-06-10T00:49:46;9.07;;;4.25;;
59492;SDS011;45497;43.996;22.876;2023-06-10T00:52:12;9.52;;;4.55;;
59492;SDS011;45497;43.996;22.876;2023-06-10T00:54:39;9.77;;;4.30;;
59492;SDS011;45497;43.996;22.876;2023-06-10T00:57:05;10.32;;;4.30;;
59492;SDS011;45497;43.996;22.876;2023-06-10T00:59:31;9.60;;;4.30;;
59492;SDS011;45497;43.996;22.876;2023-06-10T01:01:57;7.23;;;4.20;;
59492;SDS011;45497;43.996;22.876;2023-06-10T01:04:23;9.07;;;4.80;;
59492;SDS011;45497;43.996;22.876;2023-06-10T01:09:40;11.15;;;5.00;;
59492;SDS011;45497;43.996;22.876;2023-06-10T01:15:18;9.07;;;4.50;;
59492;SDS011;45497;43.996;22.876;2023-06-10T01:17:54;8.57;;;4.18;;
59492;SDS011;45497;43.996;22.876;2023-06-10T01:20:20;12.07;;;4.50;;
59492;SDS011;45497;43.996;22.876;2023-06-10T01:22:46;7.67;;;4.13;;
59492;SDS011;45497;43.996;22.876;2023-06-10T01:25:13;12.48;;;4.82;;
59492;SDS011;45497;43.996;22.876;2023-06-10T01:27:38;11.13;;;4.67;;
59492;SDS011;45497;43.996;22.876;2023-06-10T01:30:08;10.20;;;4.50;;
59492;SDS011;45497;43.996;22.876;2023-06-10T01:32:42;7.43;;;4.07;;
59492;SDS011;45497;43.996;22.876;2023-06-10T01:35:15;7.28;;;4.43;;
59492;SDS011;45497;43.996;22.876;2023-06-10T01:37:41;9.82;;;4.50;;
59492;SDS011;45497;43.996;22.876;2023-06-10T01:40:10;9.30;;;4.30;;
59492;SDS011;45497;43.996;22.876;2023-06-10T01:42:37;8.02;;;4.20;;
59492;SDS011;45497;43.996;22.876;2023-06-10T01:45:02;7.80;;;4.33;;
59492;SDS011;45497;43.996;22.876;2023-06-10T01:47:28;9.20;;;4.28;;
59492;SDS011;45497;43.996;22.876;2023-06-10T01:49:54;10.48;;;4.65;;
59492;SDS011;45497;43.996;22.876;2023-06-10T01:52:19;6.43;;;3.83;;
59492;SDS011;45497;43.996;22.876;2023-06-10T01:54:45;6.75;;;4.13;;
59492;SDS011;45497;43.996;22.876;2023-06-10T01:57:10;7.77;;;4.20;;
59492;SDS011;45497;43.996;22.876;2023-06-10T01:59:38;9.05;;;4.22;;
59492;SDS011;45497;43.996;22.876;2023-06-10T02:02:04;10.47;;;4.60;;
59492;SDS011;45497;43.996;22.876;2023-06-10T02:04:30;8.27;;;4.50;;
59492;SDS011;45497;43.996;22.876;2023-06-10T02:06:56;9.67;;;4.43;;
59492;SDS011;45497;43.996;22.876;2023-06-10T02:09:22;10.20;;;4.25;;
59492;SDS011;45497;43.996;22.876;2023-06-10T02:11:48;11.80;;;4.47;;
59492;SDS011;45497;43.996;22.876;2023-06-10T02:14:14;11.40;;;4.07;;
59492;SDS011;45497;43.996;22.876;2023-06-10T02:16:39;7.50;;;3.78;;
59492;SDS011;45497;43.996;22.876;2023-06-10T02:19:05;9.80;;;3.75;;
59492;SDS011;45497;43.996;22.876;2023-06-10T02:21:32;8.70;;;3.67;;
59492;SDS011;45497;43.996;22.876;2023-06-10T02:23:59;10.60;;;4.05;;
59492;SDS011;45497;43.996;22.876;2023-06-10T02:26:25;9.98;;;4.28;;
59492;SDS011;45497;43.996;22.876;2023-06-10T02:28:51;8.98;;;3.80;;
59492;SDS011;45497;43.996;22.876;2023-06-10T02:31:17;7.60;;;3.47;;
59492;SDS011;45497;43.996;22.876;2023-06-10T02:33:43;9.07;;;3.97;;
59492;SDS011;45497;43.996;22.876;2023-06-10T02:36:09;11.70;;;4.20;;
59492;SDS011;45497;43.996;22.876;2023-06-10T02:38:38;11.30;;;3.45;;
59492;SDS011;45497;43.996;22.876;2023-06-10T02:41:07;12.20;;;4.10;;
59492;SDS011;45497;43.996;22.876;2023-06-10T02:43:33;11.17;;;4.07;;
59492;SDS011;45497;43.996;22.876;2023-06-10T02:45:58;9.15;;;3.63;;
59492;SDS011;45497;43.996;22.876;2023-06-10T02:48:24;8.77;;;4.07;;
59492;SDS011;45497;43.996;22.876;2023-06-10T02:50:50;8.38;;;4.00;;
59492;SDS011;45497;43.996;22.876;2023-06-10T02:53:15;8.30;;;3.70;;
59492;SDS011;45497;43.996;22.876;2023-06-10T02:55:42;10.85;;;3.70;;
59492;SDS011;45497;43.996;22.876;2023-06-10T02:58:08;8.45;;;3.60;;
59492;SDS011;45497;43.996;22.876;2023-06-10T03:00:33;13.03;;;4.20;;
59492;SDS011;45497;43.996;22.876;2023-06-10T03:02:59;7.90;;;3.57;;
59492;SDS011;45497;43.996;22.876;2023-06-10T03:05:28;10.13;;;3.70;;
59492;SDS011;45497;43.996;22.876;2023-06-10T03:07:54;9.52;;;4.15;;
59492;SDS011;45497;43.996;22.876;2023-06-10T03:10:20;9.37;;;3.73;;
59492;SDS011;45497;43.996;22.876;2023-06-10T03:12:45;8.40;;;3.60;;
59492;SDS011;45497;43.996;22.876;2023-06-10T03:15:11;7.80;;;3.40;;
59492;SDS011;45497;43.996;22.876;2023-06-10T03:17:36;11.03;;;3.70;;
59492;SDS011;45497;43.996;22.876;2023-06-10T03:20:02;8.93;;;3.53;;
59492;SDS011;45497;43.996;22.876;2023-06-10T03:22:30;9.93;;;4.05;;
59492;SDS011;45497;43.996;22.876;2023-06-10T03:24:56;7.28;;;3.70;;
59492;SDS011;45497;43.996;22.876;2023-06-10T03:27:22;9.73;;;3.90;;
59492;SDS011;45497;43.996;22.876;2023-06-10T03:29:47;7.23;;;3.90;;
59492;SDS011;45497;43.996;22.876;2023-06-10T03:32:13;9.75;;;4.28;;
59492;SDS011;45497;43.996;22.876;2023-06-10T03:34:39;9.43;;;3.70;;
59492;SDS011;45497;43.996;22.876;2023-06-10T03:37:05;11.80;;;4.03;;
59492;SDS011;45497;43.996;22.876;2023-06-10T03:39:32;9.43;;;3.67;;
59492;SDS011;45497;43.996;22.876;2023-06-10T03:41:57;10.27;;;3.95;;
59492;SDS011;45497;43.996;22.876;2023-06-10T03:44:24;7.43;;;3.60;;
59492;SDS011;45497;43.996;22.876;2023-06-10T03:46:51;9.43;;;3.83;;
59492;SDS011;45497;43.996;22.876;2023-06-10T03:49:17;9.68;;;3.70;;
59492;SDS011;45497;43.996;22.876;2023-06-10T03:51:42;12.20;;;4.30;;
59492;SDS011;45497;43.996;22.876;2023-06-10T03:54:08;9.18;;;3.72;;
59492;SDS011;45497;43.996;22.876;2023-06-10T03:56:34;10.50;;;4.10;;
59492;SDS011;45497;43.996;22.876;2023-06-10T03:59:00;8.55;;;4.38;;
59492;SDS011;45497;43.996;22.876;2023-06-10T04:01:25;10.97;;;4.33;;
59492;SDS011;45497;43.996;22.876;2023-06-10T04:03:51;11.27;;;4.18;;
59492;SDS011;45497;43.996;22.876;2023-06-10T04:06:19;8.73;;;3.83;;
59492;SDS011;45497;43.996;22.876;2023-06-10T04:08:44;7.90;;;3.67;;
59492;SDS011;45497;43.996;22.876;2023-06-10T04:11:10;8.40;;;3.50;;
59492;SDS011;45497;43.996;22.876;2023-06-10T04:13:35;9.10;;;3.70;;
59492;SDS011;45497;43.996;22.876;2023-06-10T04:16:01;8.97;;;3.70;;
59492;SDS011;45497;43.996;22.876;2023-06-10T04:18:27;10.88;;;4.03;;
59492;SDS011;45497;43.996;22.876;2023-06-10T04:20:53;7.57;;;4.00;;
59492;SDS011;45497;43.996;22.876;2023-06-10T04:23:19;9.50;;;3.95;;
59492;SDS011;45497;43.996;22.876;2023-06-10T04:25:44;12.23;;;3.43;;
59492;SDS011;45497;43.996;22.876;2023-06-10T04:28:10;8.97;;;3.47;;
59492;SDS011;45497;43.996;22.876;2023-06-10T04:30:35;8.30;;;3.35;;
59492;SDS011;45497;43.996;22.876;2023-06-10T04:33:01;7.63;;;3.20;;
59492;SDS011;45497;43.996;22.876;2023-06-10T04:35:26;10.70;;;3.80;;
59492;SDS011;45497;43.996;22.876;2023-06-10T04:37:53;9.73;;;3.63;;
59492;SDS011;45497;43.996;22.876;2023-06-10T04:40:18;8.27;;;2.85;;
59492;SDS011;45497;43.996;22.876;2023-06-10T04:42:44;8.80;;;3.58;;
59492;SDS011;45497;43.996;22.876;2023-06-10T04:45:10;8.95;;;3.50;;
59492;SDS011;45497;43.996;22.876;2023-06-10T04:47:36;8.57;;;3.30;;
59492;SDS011;45497;43.996;22.876;2023-06-10T04:50:02;6.65;;;3.08;;
59492;SDS011;45497;43.996;22.876;2023-06-10T04:52:29;8.25;;;3.47;;
59492;SDS011;45497;43.996;22.876;2023-06-10T04:54:54;13.63;;;3.60;;
59492;SDS011;45497;43.996;22.876;2023-06-10T04:57:20;9.43;;;3.50;;
59492;SDS011;45497;43.996;22.876;2023-06-10T04:59:46;8.65;;;3.20;;
59492;SDS011;45497;43.996;22.876;2023-06-10T05:02:12;9.05;;;3.13;;
59492;SDS011;45497;43.996;22.876;2023-06-10T05:04:38;8.07;;;3.23;;
59492;SDS011;45497;43.996;22.876;2023-06-10T05:07:04;11.23;;;3.33;;
59492;SDS011;45497;43.996;22.876;2023-06-10T05:09:30;7.78;;;3.17;;
59492;SDS011;45497;43.996;22.876;2023-06-10T05:11:55;9.73;;;3.23;;
59492;SDS011;45497;43.996;22.876;2023-06-10T05:14:21;5.90;;;2.80;;
59492;SDS011;45497;43.996;22.876;2023-06-10T05:16:47;7.82;;;2.97;;
59492;SDS011;45497;43.996;22.876;2023-06-10T05:19:13;7.18;;;3.17;;
59492;SDS011;45497;43.996;22.876;2023-06-10T05:21:39;7.70;;;3.10;;
59492;SDS011;45497;43.996;22.876;2023-06-10T05:24:04;5.53;;;3.03;;
59492;SDS011;45497;43.996;22.876;2023-06-10T05:26:30;7.03;;;3.47;;
59492;SDS011;45497;43.996;22.876;2023-06-10T05:28:58;6.23;;;2.67;;
59492;SDS011;45497;43.996;22.876;2023-06-10T05:31:23;7.10;;;3.78;;
59492;SDS011;45497;43.996;22.876;2023-06-10T05:33:49;8.67;;;3.20;;
59492;SDS011;45497;43.996;22.876;2023-06-10T05:36:14;5.53;;;3.00;;
59492;SDS011;45497;43.996;22.876;2023-06-10T05:38:40;7.47;;;3.47;;
59492;SDS011;45497;43.996;22.876;2023-06-10T05:41:05;5.67;;;3.30;;
59492;SDS011;45497;43.996;22.876;2023-06-10T05:43:31;7.95;;;3.05;;
59492;SDS011;45497;43.996;22.876;2023-06-10T05:45:56;7.43;;;3.20;;
59492;SDS011;45497;43.996;22.876;2023-06-10T05:48:22;7.47;;;3.40;;
59492;SDS011;45497;43.996;22.876;2023-06-10T05:50:48;8.38;;;3.90;;
59492;SDS011;45497;43.996;22.876;2023-06-10T05:53:16;6.20;;;3.27;;
59492;SDS011;45497;43.996;22.876;2023-06-10T05:55:42;5.53;;;2.63;;
59492;SDS011;45497;43.996;22.876;2023-06-10T05:58:09;7.28;;;2.80;;
59492;SDS011;45497;43.996;22.876;2023-06-10T06:00:37;7.00;;;2.90;;
59492;SDS011;45497;43.996;22.876;2023-06-10T06:03:03;6.97;;;3.22;;
59492;SDS011;45497;43.996;22.876;2023-06-10T06:05:28;5.77;;;2.83;;
59492;SDS011;45497;43.996;22.876;2023-06-10T06:08:00;8.85;;;2.85;;
59492;SDS011;45497;43.996;22.876;2023-06-10T06:10:32;7.03;;;3.00;;
59492;SDS011;45497;43.996;22.876;2023-06-10T06:12:58;8.07;;;3.08;;
59492;SDS011;45497;43.996;22.876;2023-06-10T06:15:23;5.63;;;2.50;;
59492;SDS011;45497;43.996;22.876;2023-06-10T06:17:49;5.68;;;2.83;;
59492;SDS011;45497;43.996;22.876;2023-06-10T06:20:17;4.57;;;2.37;;
59492;SDS011;45497;43.996;22.876;2023-06-10T06:22:46;5.35;;;2.67;;
59492;SDS011;45497;43.996;22.876;2023-06-10T06:25:11;5.10;;;2.23;;
59492;SDS011;45497;43.996;22.876;2023-06-10T06:27:37;7.05;;;3.35;;
59492;SDS011;45497;43.996;22.876;2023-06-10T06:30:03;10.52;;;3.10;;
59492;SDS011;45497;43.996;22.876;2023-06-10T06:32:29;10.73;;;3.17;;
59492;SDS011;45497;43.996;22.876;2023-06-10T06:34:54;9.20;;;3.40;;
59492;SDS011;45497;43.996;22.876;2023-06-10T06:37:21;6.93;;;2.77;;
59492;SDS011;45497;43.996;22.876;2023-06-10T06:39:47;5.78;;;2.75;;
59492;SDS011;45497;43.996;22.876;2023-06-10T06:42:13;5.27;;;2.67;;
59492;SDS011;45497;43.996;22.876;2023-06-10T06:44:39;6.88;;;2.70;;
59492;SDS011;45497;43.996;22.876;2023-06-10T06:47:04;4.30;;;2.58;;
59492;SDS011;45497;43.996;22.876;2023-06-10T06:49:30;4.97;;;2.43;;
59492;SDS011;45497;43.996;22.876;2023-06-10T06:51:55;3.40;;;2.10;;
59492;SDS011;45497;43.996;22.876;2023-06-10T06:54:21;4.70;;;2.30;;
59492;SDS011;45497;43.996;22.876;2023-06-10T06:56:46;4.47;;;2.30;;
59492;SDS011;45497;43.996;22.876;2023-06-10T06:59:12;4.70;;;2.30;;
59492;SDS011;45497;43.996;22.876;2023-06-10T07:01:39;5.43;;;2.60;;
59492;SDS011;45497;43.996;22.876;2023-06-10T07:04:04;6.30;;;2.50;;
59492;SDS011;45497;43.996;22.876;2023-06-10T07:06:30;3.17;;;2.20;;
59492;SDS011;45497;43.996;22.876;2023-06-10T07:08:55;5.83;;;2.33;;
59492;SDS011;45497;43.996;22.876;2023-06-10T07:11:21;6.37;;;2.47;;
59492;SDS011;45497;43.996;22.876;2023-06-10T07:13:47;5.68;;;2.45;;
59492;SDS011;45497;43.996;22.876;2023-06-10T07:16:12;5.20;;;2.50;;
59492;SDS011;45497;43.996;22.876;2023-06-10T07:18:38;6.30;;;2.50;;
59492;SDS011;45497;43.996;22.876;2023-06-10T07:21:03;5.45;;;3.00;;
59492;SDS011;45497;43.996;22.876;2023-06-10T07:23:29;7.50;;;2.53;;
59492;SDS011;45497;43.996;22.876;2023-06-10T07:25:55;4.78;;;2.40;;
59492;SDS011;45497;43.996;22.876;2023-06-10T07:28:20;6.00;;;2.67;;
59492;SDS011;45497;43.996;22.876;2023-06-10T07:30:46;5.17;;;2.20;;
59492;SDS011;45497;43.996;22.876;2023-06-10T07:33:11;5.30;;;2.30;;
59492;SDS011;45497;43.996;22.876;2023-06-10T07:35:36;4.70;;;2.40;;
59492;SDS011;45497;43.996;22.876;2023-06-10T07:38:02;4.65;;;2.40;;
59492;SDS011;45497;43.996;22.876;2023-06-10T07:40:27;3.90;;;2.60;;
59492;SDS011;45497;43.996;22.876;2023-06-10T07:42:54;4.17;;;2.63;;
59492;SDS011;45497;43.996;22.876;2023-06-10T07:45:20;4.88;;;2.33;;
59492;SDS011;45497;43.996;22.876;2023-06-10T07:47:46;5.40;;;2.50;;
59492;SDS011;45497;43.996;22.876;2023-06-10T07:50:11;4.03;;;2.40;;
59492;SDS011;45497;43.996;22.876;2023-06-10T07:52:37;6.00;;;2.50;;
59492;SDS011;45497;43.996;22.876;2023-06-10T07:55:02;5.57;;;2.40;;
59492;SDS011;45497;43.996;22.876;2023-06-10T07:57:29;5.80;;;2.60;;
59492;SDS011;45497;43.996;22.876;2023-06-10T07:59:56;5.93;;;2.38;;
59492;SDS011;45497;43.996;22.876;2023-06-10T08:02:24;4.93;;;2.58;;
59492;SDS011;45497;43.996;22.876;2023-06-10T08:04:50;8.27;;;2.70;;
59492;SDS011;45497;43.996;22.876;2023-06-10T08:07:15;7.17;;;2.40;;
59492;SDS011;45497;43.996;22.876;2023-06-10T08:09:43;6.53;;;2.57;;
59492;SDS011;45497;43.996;22.876;2023-06-10T08:12:08;3.67;;;2.22;;
59492;SDS011;45497;43.996;22.876;2023-06-10T08:14:34;7.82;;;2.80;;
59492;SDS011;45497;43.996;22.876;2023-06-10T08:16:59;5.97;;;2.50;;
59492;SDS011;45497;43.996;22.876;2023-06-10T08:19:25;5.07;;;2.57;;
59492;SDS011;45497;43.996;22.876;2023-06-10T08:21:50;6.33;;;2.50;;
59492;SDS011;45497;43.996;22.876;2023-06-10T08:24:16;3.90;;;2.42;;
59492;SDS011;45497;43.996;22.876;2023-06-10T08:26:43;5.15;;;2.40;;
59492;SDS011;45497;43.996;22.876;2023-06-10T08:29:11;6.07;;;2.40;;
59492;SDS011;45497;43.996;22.876;2023-06-10T08:31:37;6.32;;;2.72;;
59492;SDS011;45497;43.996;22.876;2023-06-10T08:34:06;7.78;;;3.03;;
59492;SDS011;45497;43.996;22.876;2023-06-10T08:36:32;8.67;;;2.90;;
59492;SDS011;45497;43.996;22.876;2023-06-10T08:38:57;5.30;;;2.90;;
59492;SDS011;45497;43.996;22.876;2023-06-10T08:41:23;5.13;;;2.70;;
59492;SDS011;45497;43.996;22.876;2023-06-10T08:46:35;5.82;;;2.50;;
59492;SDS011;45497;43.996;22.876;2023-06-10T08:49:05;3.92;;;2.30;;
59492;SDS011;45497;43.996;22.876;2023-06-10T08:51:34;4.38;;;2.72;;
59492;SDS011;45497;43.996;22.876;2023-06-10T08:54:05;6.28;;;2.42;;
59492;SDS011;45497;43.996;22.876;2023-06-10T08:56:45;6.03;;;2.57;;
59492;SDS011;45497;43.996;22.876;2023-06-10T08:59:15;9.27;;;3.43;;
59492;SDS011;45497;43.996;22.876;2023-06-10T09:01:41;4.40;;;2.50;;
59492;SDS011;45497;43.996;22.876;2023-06-10T09:04:08;6.70;;;2.83;;
59492;SDS011;45497;43.996;22.876;2023-06-10T09:06:33;5.23;;;2.70;;
59492;SDS011;45497;43.996;22.876;2023-06-10T09:09:01;8.10;;;3.00;;
59492;SDS011;45497;43.996;22.876;2023-06-10T09:11:27;5.93;;;2.80;;
59492;SDS011;45497;43.996;22.876;2023-06-10T09:13:53;6.85;;;3.20;;
59492;SDS011;45497;43.996;22.876;2023-06-10T09:16:19;6.43;;;2.72;;
59492;SDS011;45497;43.996;22.876;2023-06-10T09:18:44;5.77;;;2.50;;
59492;SDS011;45497;43.996;22.876;2023-06-10T09:21:10;4.20;;;2.53;;
59492;SDS011;45497;43.996;22.876;2023-06-10T09:23:36;3.67;;;2.33;;
59492;SDS011;45497;43.996;22.876;2023-06-10T09:26:02;5.38;;;2.67;;
59492;SDS011;45497;43.996;22.876;2023-06-10T09:28:33;4.97;;;2.40;;
59492;SDS011;45497;43.996;22.876;2023-06-10T09:31:16;7.30;;;2.55;;
59492;SDS011;45497;43.996;22.876;2023-06-10T09:33:44;7.57;;;2.85;;
59492;SDS011;45497;43.996;22.876;2023-06-10T09:36:10;9.07;;;2.95;;
59492;SDS011;45497;43.996;22.876;2023-06-10T09:38:36;11.38;;;3.10;;
59492;SDS011;45497;43.996;22.876;2023-06-10T09:41:03;7.68;;;3.10;;
59492;SDS011;45497;43.996;22.876;2023-06-10T09:43:39;5.75;;;2.63;;
59492;SDS011;45497;43.996;22.876;2023-06-10T09:46:06;8.18;;;2.92;;
59492;SDS011;45497;43.996;22.876;2023-06-10T09:48:39;8.40;;;3.33;;
59492;SDS011;45497;43.996;22.876;2023-06-10T09:51:11;6.90;;;2.90;;
59492;SDS011;45497;43.996;22.876;2023-06-10T09:53:38;8.75;;;2.90;;
59492;SDS011;45497;43.996;22.876;2023-06-10T09:56:04;9.77;;;3.43;;
59492;SDS011;45497;43.996;22.876;2023-06-10T09:58:35;7.23;;;2.67;;
59492;SDS011;45497;43.996;22.876;2023-06-10T10:01:06;5.43;;;2.67;;
59492;SDS011;45497;43.996;22.876;2023-06-10T10:03:44;6.85;;;2.70;;
59492;SDS011;45497;43.996;22.876;2023-06-10T10:06:11;6.43;;;2.87;;
59492;SDS011;45497;43.996;22.876;2023-06-10T10:08:36;7.40;;;3.00;;
59492;SDS011;45497;43.996;22.876;2023-06-10T10:11:02;6.87;;;2.67;;
59492;SDS011;45497;43.996;22.876;2023-06-10T10:13:28;8.10;;;3.00;;
59492;SDS011;45497;43.996;22.876;2023-06-10T10:15:59;4.70;;;3.00;;
59492;SDS011;45497;43.996;22.876;2023-06-10T10:18:29;5.63;;;2.60;;
59492;SDS011;45497;43.996;22.876;2023-06-10T10:20:56;4.10;;;2.67;;
59492;SDS011;45497;43.996;22.876;2023-06-10T10:23:28;5.03;;;2.80;;
59492;SDS011;45497;43.996;22.876;2023-06-10T10:26:00;8.55;;;2.80;;
59492;SDS011;45497;43.996;22.876;2023-06-10T10:28:29;6.97;;;2.65;;
59492;SDS011;45497;43.996;22.876;2023-06-10T10:31:05;6.18;;;3.00;;
59492;SDS011;45497;43.996;22.876;2023-06-10T10:33:42;6.88;;;3.47;;
59492;SDS011;45497;43.996;22.876;2023-06-10T10:36:18;8.45;;;3.50;;
59492;SDS011;45497;43.996;22.876;2023-06-10T10:38:45;4.20;;;2.60;;
59492;SDS011;45497;43.996;22.876;2023-06-10T10:41:13;4.53;;;2.60;;
59492;SDS011;45497;43.996;22.876;2023-06-10T10:43:39;6.50;;;2.92;;
59492;SDS011;45497;43.996;22.876;2023-06-10T10:46:09;5.63;;;2.60;;
59492;SDS011;45497;43.996;22.876;2023-06-10T10:48:38;8.13;;;3.08;;
59492;SDS011;45497;43.996;22.876;2023-06-10T10:51:04;6.30;;;2.77;;
59492;SDS011;45497;43.996;22.876;2023-06-10T10:53:29;5.60;;;2.70;;
59492;SDS011;45497;43.996;22.876;2023-06-10T10:55:59;6.13;;;2.80;;
59492;SDS011;45497;43.996;22.876;2023-06-10T10:58:32;5.07;;;2.85;;
59492;SDS011;45497;43.996;22.876;2023-06-10T11:00:58;6.25;;;3.00;;
59492;SDS011;45497;43.996;22.876;2023-06-10T11:03:27;5.20;;;2.83;;
59492;SDS011;45497;43.996;22.876;2023-06-10T11:05:56;5.90;;;2.70;;
59492;SDS011;45497;43.996;22.876;2023-06-10T11:10:54;4.95;;;2.75;;
59492;SDS011;45497;43.996;22.876;2023-06-10T11:13:20;7.40;;;3.83;;
59492;SDS011;45497;43.996;22.876;2023-06-10T11:15:48;5.20;;;3.00;;
59492;SDS011;45497;43.996;22.876;2023-06-10T11:23:31;5.37;;;2.90;;
59492;SDS011;45497;43.996;22.876;2023-06-10T11:26:43;6.13;;;3.07;;
59492;SDS011;45497;43.996;22.876;2023-06-10T11:31:30;4.75;;;2.75;;
59492;SDS011;45497;43.996;22.876;2023-06-10T11:34:00;5.23;;;2.70;;
59492;SDS011;45497;43.996;22.876;2023-06-10T11:36:28;9.35;;;3.20;;
59492;SDS011;45497;43.996;22.876;2023-06-10T11:38:58;5.70;;;2.80;;
59492;SDS011;45497;43.996;22.876;2023-06-10T11:41:25;6.50;;;3.00;;
59492;SDS011;45497;43.996;22.876;2023-06-10T11:43:54;6.18;;;2.70;;
59492;SDS011;45497;43.996;22.876;2023-06-10T11:46:24;6.40;;;2.80;;
59492;SDS011;45497;43.996;22.876;2023-06-10T11:48:53;6.05;;;2.88;;
59492;SDS011;45497;43.996;22.876;2023-06-10T11:51:20;6.05;;;2.88;;
59492;SDS011;45497;43.996;22.876;2023-06-10T11:53:49;8.13;;;3.00;;
59492;SDS011;45497;43.996;22.876;2023-06-10T11:56:25;4.65;;;2.72;;
59492;SDS011;45497;43.996;22.876;2023-06-10T11:58:53;7.75;;;3.03;;
59492;SDS011;45497;43.996;22.876;2023-06-10T12:01:20;7.72;;;2.95;;
59492;SDS011;45497;43.996;22.876;2023-06-10T12:04:02;5.78;;;2.80;;
59492;SDS011;45497;43.996;22.876;2023-06-10T12:06:43;5.55;;;3.00;;
59492;SDS011;45497;43.996;22.876;2023-06-10T12:11:46;6.05;;;2.65;;
59492;SDS011;45497;43.996;22.876;2023-06-10T12:14:15;5.32;;;2.92;;
59492;SDS011;45497;43.996;22.876;2023-06-10T12:16:41;9.67;;;4.83;;
59492;SDS011;45497;43.996;22.876;2023-06-10T12:19:13;6.38;;;3.03;;
59492;SDS011;45497;43.996;22.876;2023-06-10T12:21:39;4.47;;;2.70;;
59492;SDS011;45497;43.996;22.876;2023-06-10T12:24:05;7.20;;;2.70;;
59492;SDS011;45497;43.996;22.876;2023-06-10T12:26:34;5.32;;;2.60;;
59492;SDS011;45497;43.996;22.876;2023-06-10T12:29:01;7.07;;;2.72;;
59492;SDS011;45497;43.996;22.876;2023-06-10T12:34:33;6.32;;;2.97;;
59492;SDS011;45497;43.996;22.876;2023-06-10T12:37:01;7.85;;;2.80;;
59492;SDS011;45497;43.996;22.876;2023-06-10T12:39:29;6.15;;;2.70;;
59492;SDS011;45497;43.996;22.876;2023-06-10T12:41:58;4.88;;;2.67;;
59492;SDS011;45497;43.996;22.876;2023-06-10T12:44:31;6.95;;;2.90;;
59492;SDS011;45497;43.996;22.876;2023-06-10T12:46:57;6.55;;;3.00;;
59492;SDS011;45497;43.996;22.876;2023-06-10T12:49:22;3.90;;;2.50;;
59492;SDS011;45497;43.996;22.876;2023-06-10T12:51:48;7.20;;;2.78;;
59492;SDS011;45497;43.996;22.876;2023-06-10T12:54:14;6.00;;;2.57;;
59492;SDS011;45497;43.996;22.876;2023-06-10T12:56:39;3.80;;;2.70;;
59492;SDS011;45497;43.996;22.876;2023-06-10T12:59:05;4.53;;;2.70;;
59492;SDS011;45497;43.996;22.876;2023-06-10T13:01:31;6.85;;;2.60;;
59492;SDS011;45497;43.996;22.876;2023-06-10T13:03:57;3.60;;;2.40;;
59492;SDS011;45497;43.996;22.876;2023-06-10T13:06:23;4.57;;;2.60;;
59492;SDS011;45497;43.996;22.876;2023-06-10T13:08:48;3.67;;;2.43;;
59492;SDS011;45497;43.996;22.876;2023-06-10T13:11:14;7.88;;;3.17;;
59492;SDS011;45497;43.996;22.876;2023-06-10T13:13:40;5.82;;;2.70;;
59492;SDS011;45497;43.996;22.876;2023-06-10T13:16:05;5.85;;;2.88;;
59492;SDS011;45497;43.996;22.876;2023-06-10T13:18:32;5.32;;;2.85;;
59492;SDS011;45497;43.996;22.876;2023-06-10T13:21:05;5.22;;;2.80;;
59492;SDS011;45497;43.996;22.876;2023-06-10T13:23:30;5.00;;;2.70;;
59492;SDS011;45497;43.996;22.876;2023-06-10T13:25:56;5.05;;;2.50;;
59492;SDS011;45497;43.996;22.876;2023-06-10T13:28:22;9.03;;;2.80;;
59492;SDS011;45497;43.996;22.876;2023-06-10T13:30:47;3.63;;;2.67;;
59492;SDS011;45497;43.996;22.876;2023-06-10T13:33:13;3.90;;;2.53;;
59492;SDS011;45497;43.996;22.876;2023-06-10T13:35:38;8.37;;;2.83;;
59492;SDS011;45497;43.996;22.876;2023-06-10T13:38:04;8.55;;;3.45;;
59492;SDS011;45497;43.996;22.876;2023-06-10T13:40:29;7.80;;;2.83;;
59492;SDS011;45497;43.996;22.876;2023-06-10T13:42:55;8.35;;;3.15;;
59492;SDS011;45497;43.996;22.876;2023-06-10T13:45:21;9.40;;;3.00;;
59492;SDS011;45497;43.996;22.876;2023-06-10T13:47:46;6.80;;;2.80;;
59492;SDS011;45497;43.996;22.876;2023-06-10T13:50:12;5.05;;;2.50;;
59492;SDS011;45497;43.996;22.876;2023-06-10T13:52:38;6.80;;;2.80;;
59492;SDS011;45497;43.996;22.876;2023-06-10T13:55:04;6.57;;;2.53;;
59492;SDS011;45497;43.996;22.876;2023-06-10T13:57:30;7.40;;;2.50;;
59492;SDS011;45497;43.996;22.876;2023-06-10T13:59:55;6.13;;;2.73;;
59492;SDS011;45497;43.996;22.876;2023-06-10T14:02:21;5.97;;;2.80;;
59492;SDS011;45497;43.996;22.876;2023-06-10T14:04:47;5.90;;;2.70;;
59492;SDS011;45497;43.996;22.876;2023-06-10T14:07:12;4.77;;;2.60;;
59492;SDS011;45497;43.996;22.876;2023-06-10T14:09:38;8.03;;;2.90;;
59492;SDS011;45497;43.996;22.876;2023-06-10T14:12:03;7.43;;;3.17;;
59492;SDS011;45497;43.996;22.876;2023-06-10T14:14:30;9.15;;;2.92;;
59492;SDS011;45497;43.996;22.876;2023-06-10T14:16:56;5.63;;;2.92;;
59492;SDS011;45497;43.996;22.876;2023-06-10T14:19:21;8.37;;;3.40;;
59492;SDS011;45497;43.996;22.876;2023-06-10T14:21:47;7.00;;;3.40;;
59492;SDS011;45497;43.996;22.876;2023-06-10T14:24:14;8.20;;;3.40;;
59492;SDS011;45497;43.996;22.876;2023-06-10T14:26:39;11.20;;;3.60;;
59492;SDS011;45497;43.996;22.876;2023-06-10T14:29:05;9.30;;;3.60;;
59492;SDS011;45497;43.996;22.876;2023-06-10T14:31:32;9.93;;;2.95;;
59492;SDS011;45497;43.996;22.876;2023-06-10T14:33:57;8.48;;;3.40;;
59492;SDS011;45497;43.996;22.876;2023-06-10T14:36:23;7.55;;;3.08;;
59492;SDS011;45497;43.996;22.876;2023-06-10T14:38:48;8.53;;;3.43;;
59492;SDS011;45497;43.996;22.876;2023-06-10T14:41:14;13.68;;;3.63;;
59492;SDS011;45497;43.996;22.876;2023-06-10T14:43:40;13.50;;;3.87;;
59492;SDS011;45497;43.996;22.876;2023-06-10T14:46:05;8.57;;;4.10;;
59492;SDS011;45497;43.996;22.876;2023-06-10T14:48:31;10.03;;;4.10;;
59492;SDS011;45497;43.996;22.876;2023-06-10T14:50:57;9.50;;;3.70;;
59492;SDS011;45497;43.996;22.876;2023-06-10T14:53:22;7.78;;;3.67;;
59492;SDS011;45497;43.996;22.876;2023-06-10T14:55:48;9.73;;;4.73;;